createdAt,value
2023-05-12T00:00:47.263Z,17.96
2023-05-12T00:10:52.397Z,17.96
2023-05-12T00:20:58.247Z,18.02
2023-05-12T00:31:03.939Z,18.02
2023-05-12T00:41:09.590Z,18.03
2023-05-12T00:51:14.965Z,18.05
2023-05-12T01:01:20.225Z,18.07
2023-05-12T01:11:25.918Z,18.12
2023-05-12T01:21:31.444Z,18.12
2023-05-12T01:31:36.854Z,18.12
2023-05-12T01:41:42.437Z,18.14
2023-05-12T01:51:47.750Z,18.22
2023-05-12T02:01:53.159Z,18.22
2023-05-12T02:11:58.797Z,18.23
2023-05-12T02:22:04.672Z,18.26
2023-05-12T02:32:11.193Z,18.27
2023-05-12T02:42:16.896Z,18.27
2023-05-12T02:52:22.464Z,18.27
2023-05-12T03:02:28.109Z,18.28
2023-05-12T03:12:33.830Z,18.30
2023-05-12T03:22:39.473Z,18.30
2023-05-12T03:32:44.926Z,18.34
2023-05-12T03:42:50.762Z,18.36
2023-05-12T03:52:56.344Z,18.36
2023-05-12T04:03:01.736Z,18.36
2023-05-12T04:13:07.386Z,18.39
2023-05-12T04:23:12.798Z,18.40
2023-05-12T04:33:18.454Z,18.42
2023-05-12T04:53:33.059Z,18.46
2023-05-12T05:03:38.483Z,18.46
2023-05-12T05:13:44.240Z,18.45
2023-05-12T05:23:49.755Z,18.53
2023-05-12T05:33:55.605Z,18.05
2023-05-12T05:44:01.104Z,17.81
2023-05-12T05:54:06.622Z,17.81
2023-05-12T06:04:10.496Z,14.20
2023-05-12T06:14:15.269Z,14.20
2023-05-12T06:24:22.480Z,16.54
2023-05-12T06:34:28.521Z,16.54
2023-05-12T06:44:34.523Z,17.50
2023-05-12T06:54:40.275Z,17.50
2023-05-12T07:04:46.041Z,17.91
2023-05-12T07:14:51.701Z,18.04
2023-05-12T07:24:57.715Z,18.04
2023-05-12T07:35:03.556Z,18.09
2023-05-12T07:45:09.745Z,18.25
2023-05-12T07:55:15.349Z,18.38
2023-05-12T08:05:21.395Z,18.38
2023-05-12T08:15:27.246Z,18.42
2023-05-12T08:25:33.098Z,18.25
2023-05-12T08:35:38.758Z,18.34
2023-05-12T08:45:43.858Z,18.34
2023-05-12T08:57:08.308Z,18.59
2023-05-12T09:06:00.223Z,18.71
2023-05-12T09:16:06.385Z,18.91
2023-05-12T09:26:11.904Z,18.91
2023-05-12T09:36:17.592Z,19.12
2023-05-12T09:46:23.206Z,18.98
2023-05-12T09:56:28.841Z,18.98
2023-05-12T10:06:34.469Z,18.85
2023-05-12T10:16:40.375Z,18.84
2023-05-12T10:26:46.622Z,18.68
2023-05-12T10:36:52.187Z,18.75
2023-05-12T10:46:57.959Z,18.75
2023-05-12T10:57:03.774Z,18.73
2023-05-12T11:07:09.821Z,18.66
2023-05-12T11:17:16.380Z,18.57
2023-05-12T11:27:21.798Z,18.57
2023-05-12T11:37:27.648Z,18.62
2023-05-12T11:47:33.181Z,18.57
2023-05-12T11:57:38.763Z,18.58
2023-05-12T12:07:44.225Z,18.59
2023-05-12T12:17:49.810Z,18.59
2023-05-12T12:27:55.577Z,18.68
2023-05-12T12:38:01.404Z,18.75
2023-05-12T12:48:07.280Z,18.78
2023-05-12T12:58:12.986Z,18.85
2023-05-12T13:08:18.870Z,18.92
2023-05-12T13:18:24.675Z,18.94
2023-05-12T13:28:30.563Z,18.94
2023-05-12T13:38:36.146Z,18.94
2023-05-12T13:48:41.876Z,18.98
2023-05-12T13:58:47.384Z,19.04
2023-05-12T14:08:53.213Z,19.04
2023-05-12T14:18:58.668Z,19.02
2023-05-12T14:29:05.202Z,18.96
2023-05-12T14:39:12.029Z,18.96
2023-05-12T14:49:17.508Z,18.92
2023-05-12T14:59:23.100Z,18.94
2023-05-12T15:09:28.726Z,18.96
2023-05-12T15:19:34.394Z,18.96
2023-05-12T15:29:39.811Z,18.96
2023-05-12T15:39:45.222Z,18.98
2023-05-12T15:49:50.813Z,18.98
2023-05-12T15:59:56.309Z,18.98
2023-05-12T16:10:02.503Z,18.98
2023-05-12T16:20:08.277Z,18.96
2023-05-12T16:30:14.071Z,18.96
2023-05-12T16:40:19.686Z,18.94
2023-05-12T16:50:25.173Z,18.94
2023-05-12T17:00:30.709Z,18.94
2023-05-12T17:10:36.252Z,18.89
2023-05-12T17:20:41.821Z,18.88
2023-05-12T17:30:47.813Z,18.88
2023-05-12T17:40:53.415Z,18.88
2023-05-12T17:50:59.247Z,18.86
2023-05-12T18:01:04.623Z,18.86
2023-05-12T18:11:09.643Z,18.86
2023-05-12T18:21:15.466Z,18.82
2023-05-12T18:31:21.612Z,18.81
2023-05-12T18:41:28.050Z,18.81
2023-05-12T18:51:33.535Z,18.81
2023-05-12T19:01:39.037Z,18.77
2023-05-12T19:11:44.975Z,18.77
2023-05-12T19:21:50.570Z,18.77
2023-05-12T19:31:56.572Z,18.76
2023-05-12T19:42:02.258Z,18.76
2023-05-12T19:52:07.656Z,18.73
2023-05-12T20:02:13.270Z,18.72
2023-05-12T20:12:19.208Z,18.70
2023-05-12T20:22:24.390Z,18.70
2023-05-12T20:32:30.117Z,18.67
2023-05-12T20:42:35.665Z,18.64
2023-05-12T20:52:41.573Z,18.64
2023-05-12T21:02:47.060Z,18.60
2023-05-12T21:12:52.556Z,18.64
2023-05-12T21:22:58.180Z,18.41
2023-05-12T21:33:04.195Z,18.35
2023-05-12T21:43:10.302Z,18.45
2023-05-12T21:53:16.914Z,18.45
2023-05-12T22:03:22.568Z,18.52
2023-05-12T22:13:27.876Z,18.58
2023-05-12T22:23:33.688Z,18.58
2023-05-12T22:33:39.682Z,18.59
2023-05-12T22:43:45.619Z,18.63
2023-05-12T22:53:51.085Z,18.63
2023-05-12T23:03:56.566Z,18.62
2023-05-12T23:14:02.655Z,18.64
2023-05-12T23:24:08.429Z,18.70
2023-05-12T23:34:14.092Z,18.70
2023-05-12T23:44:20.154Z,18.72
2023-05-12T23:54:25.675Z,18.72
